createdAt,value
2022-08-23T00:02:00.195Z,65.63
2022-08-23T00:04:34.708Z,65.65
2022-08-23T00:07:04.094Z,65.35
2022-08-23T00:09:31.130Z,64.90
2022-08-23T00:12:18.362Z,66.00
2022-08-23T00:14:49.030Z,65.43
2022-08-23T00:17:33.576Z,65.89
2022-08-23T00:20:10.658Z,66.76
2022-08-23T00:22:38.217Z,66.87
2022-08-23T00:25:08.543Z,66.83
2022-08-23T00:27:35.620Z,67.42
2022-08-23T00:30:02.924Z,66.62
2022-08-23T00:32:33.068Z,67.26
2022-08-23T00:35:00.526Z,66.86
2022-08-23T00:37:29.402Z,65.88
2022-08-23T00:39:56.619Z,65.78
2022-08-23T00:42:41.857Z,66.45
2022-08-23T00:45:32.904Z,64.93
2022-08-23T00:48:00.045Z,66.59
2022-08-23T00:50:30.232Z,66.34
2022-08-23T00:52:59.552Z,66.57
2022-08-23T00:55:27.118Z,65.87
2022-08-23T00:57:54.667Z,66.93
2022-08-23T01:00:22.142Z,65.92
2022-08-23T01:02:51.420Z,66.10
2022-08-23T01:05:19.370Z,66.88
2022-08-23T01:07:56.302Z,66.66
2022-08-23T01:10:29.763Z,67.10
2022-08-23T01:13:03.455Z,67.27
2022-08-23T01:15:38.256Z,67.42
2022-08-23T01:18:09.287Z,66.91
2022-08-23T01:21:04.520Z,67.06
2022-08-23T01:23:41.810Z,67.02
2022-08-23T01:26:10.934Z,67.17
2022-08-23T01:28:39.570Z,67.89
2022-08-23T01:31:07.340Z,67.95
2022-08-23T01:33:36.692Z,67.60
2022-08-23T01:36:09.767Z,67.77
2022-08-23T01:38:38.173Z,67.55
2022-08-23T01:41:06.979Z,67.68
2022-08-23T01:43:33.932Z,68.04
2022-08-23T01:46:12.686Z,68.08
2022-08-23T01:48:39.835Z,67.23
2022-08-23T01:51:07.972Z,65.93
2022-08-23T01:53:35.506Z,68.08
2022-08-23T01:56:02.490Z,66.71
2022-08-23T01:58:32.846Z,68.49
2022-08-23T02:01:01.944Z,68.43
2022-08-23T02:03:29.159Z,67.42
2022-08-23T02:05:57.030Z,64.90
2022-08-23T02:08:42.664Z,64.79
2022-08-23T02:11:15.051Z,66.60
2022-08-23T02:13:45.988Z,66.92
2022-08-23T02:16:24.980Z,65.59
2022-08-23T02:18:53.185Z,65.49
2022-08-23T02:21:22.095Z,65.39
2022-08-23T02:23:49.687Z,65.63
2022-08-23T02:26:16.625Z,65.62
2022-08-23T02:28:44.905Z,65.89
2022-08-23T02:31:12.316Z,65.78
2022-08-23T02:33:39.485Z,67.34
2022-08-23T02:36:06.718Z,65.15
2022-08-23T02:38:33.467Z,65.24
2022-08-23T02:41:01.378Z,64.87
2022-08-23T02:43:29.090Z,64.65
2022-08-23T02:45:55.767Z,64.42
2022-08-23T02:48:23.194Z,63.43
2022-08-23T02:50:50.486Z,63.39
2022-08-23T02:53:17.955Z,62.55
2022-08-23T02:55:47.138Z,62.27
2022-08-23T02:58:14.210Z,62.54
2022-08-23T03:00:41.069Z,61.47
2022-08-23T03:03:08.155Z,60.77
2022-08-23T03:05:35.381Z,60.25
2022-08-23T03:08:03.311Z,60.36
2022-08-23T03:10:35.001Z,60.56
2022-08-23T03:13:02.745Z,60.09
2022-08-23T03:15:29.770Z,60.10
2022-08-23T03:17:56.695Z,60.28
2022-08-23T03:20:23.611Z,60.02
2022-08-23T03:22:54.652Z,60.15
2022-08-23T03:25:22.821Z,60.14
2022-08-23T03:27:50.090Z,59.95
2022-08-23T03:30:20.050Z,60.33
2022-08-23T03:32:50.640Z,60.16
2022-08-23T03:35:17.467Z,60.34
2022-08-23T03:37:44.711Z,60.68
2022-08-23T03:40:13.025Z,60.12
2022-08-23T03:42:39.817Z,59.54
2022-08-23T03:45:06.952Z,59.90
2022-08-23T03:47:34.477Z,59.48
2022-08-23T03:50:01.494Z,60.21
2022-08-23T03:52:28.268Z,60.65
2022-08-23T03:54:55.270Z,60.72
2022-08-23T03:57:22.083Z,59.32
2022-08-23T03:59:49.251Z,59.26
2022-08-23T04:02:16.975Z,60.46
2022-08-23T04:04:44.275Z,59.77
2022-08-23T04:07:13.017Z,58.96
2022-08-23T04:09:39.831Z,58.63
2022-08-23T04:12:17.356Z,59.56
2022-08-23T04:14:46.965Z,59.15
2022-08-23T04:17:15.544Z,59.27
2022-08-23T04:19:42.765Z,58.09
2022-08-23T04:22:14.612Z,57.73
2022-08-23T04:24:43.463Z,57.61
2022-08-23T04:27:11.095Z,57.19
2022-08-23T04:29:39.917Z,56.43
2022-08-23T04:32:11.631Z,56.94
2022-08-23T04:34:45.562Z,56.46
2022-08-23T04:37:18.723Z,55.70
2022-08-23T04:40:03.962Z,55.32
2022-08-23T04:42:31.955Z,55.25
2022-08-23T04:44:59.298Z,54.83
2022-08-23T04:47:26.088Z,55.31
2022-08-23T04:49:54.086Z,55.25
2022-08-23T04:52:20.809Z,54.43
2022-08-23T04:54:47.769Z,53.47
2022-08-23T04:57:16.669Z,53.21
2022-08-23T04:59:44.463Z,52.63
2022-08-23T05:02:11.118Z,52.49
2022-08-23T05:04:38.208Z,52.50
2022-08-23T05:07:05.032Z,51.93
2022-08-23T05:09:31.791Z,51.48
2022-08-23T05:11:58.901Z,51.65
2022-08-23T05:14:25.996Z,51.48
2022-08-23T05:16:52.708Z,51.28
2022-08-23T05:19:21.722Z,51.43
2022-08-23T05:21:48.467Z,51.24
2022-08-23T05:24:15.398Z,50.82
2022-08-23T05:26:42.662Z,50.87
2022-08-23T05:29:09.452Z,50.51
2022-08-23T05:31:37.908Z,49.87
2022-08-23T05:34:05.052Z,49.37
2022-08-23T05:36:32.395Z,49.91
2022-08-23T05:39:00.118Z,49.67
2022-08-23T05:41:37.763Z,49.45
2022-08-23T05:44:06.254Z,49.90
2022-08-23T05:46:33.770Z,49.45
2022-08-23T05:49:03.015Z,49.58
2022-08-23T05:51:33.444Z,49.68
2022-08-23T05:54:04.961Z,49.11
2022-08-23T05:56:39.027Z,49.77
2022-08-23T05:59:12.486Z,49.31
2022-08-23T06:01:40.214Z,48.73
2022-08-23T06:04:11.441Z,48.53
2022-08-23T06:06:40.594Z,48.69
2022-08-23T06:09:12.481Z,48.85
2022-08-23T06:11:44.908Z,48.75
2022-08-23T06:14:13.082Z,48.95
2022-08-23T06:16:45.800Z,48.70
2022-08-23T06:19:15.130Z,48.59
2022-08-23T06:21:45.762Z,48.39
2022-08-23T06:24:13.304Z,48.25
2022-08-23T06:26:45.233Z,48.11
2022-08-23T06:29:14.682Z,48.12
2022-08-23T06:31:48.642Z,47.74
2022-08-23T06:34:33.814Z,48.20
2022-08-23T06:37:07.061Z,48.49
2022-08-23T06:39:37.660Z,47.35
2022-08-23T06:42:34.846Z,47.55
2022-08-23T06:45:00.435Z,47.20
2022-08-23T06:47:28.551Z,47.26
2022-08-23T06:49:58.353Z,47.16
2022-08-23T06:52:27.617Z,47.16
2022-08-23T06:54:55.540Z,46.19
2022-08-23T06:57:25.216Z,45.59
2022-08-23T06:59:55.210Z,45.75
2022-08-23T07:02:24.070Z,45.89
2022-08-23T07:04:55.808Z,45.23
2022-08-23T07:07:23.542Z,44.29
2022-08-23T07:09:51.893Z,43.77
2022-08-23T07:12:20.258Z,43.96
2022-08-23T07:14:47.957Z,44.13
2022-08-23T07:17:15.208Z,44.05
2022-08-23T07:19:44.605Z,43.49
2022-08-23T07:22:12.019Z,43.62
2022-08-23T07:24:39.002Z,43.28
2022-08-23T07:27:09.521Z,43.06
2022-08-23T07:29:39.691Z,42.86
2022-08-23T07:32:07.086Z,42.83
2022-08-23T07:34:35.251Z,42.72
2022-08-23T07:37:04.408Z,43.05
2022-08-23T07:39:40.847Z,42.87
2022-08-23T07:42:23.652Z,42.96
2022-08-23T07:44:52.647Z,42.25
2022-08-23T07:47:21.800Z,42.67
2022-08-23T07:49:48.842Z,42.20
2022-08-23T07:52:15.640Z,41.95
2022-08-23T07:54:48.275Z,41.46
2022-08-23T07:57:18.111Z,41.65
2022-08-23T07:59:45.991Z,41.77
2022-08-23T08:02:13.157Z,41.72
2022-08-23T08:04:40.608Z,41.62
2022-08-23T08:07:22.838Z,41.56
2022-08-23T08:09:51.836Z,41.47
2022-08-23T08:12:19.235Z,40.51
2022-08-23T08:14:48.435Z,40.43
2022-08-23T08:17:18.372Z,40.14
2022-08-23T08:19:46.328Z,39.84
2022-08-23T08:22:17.320Z,40.37
2022-08-23T08:24:48.950Z,40.68
2022-08-23T08:27:17.258Z,40.96
2022-08-23T08:29:44.090Z,40.50
2022-08-23T08:32:13.930Z,40.64
2022-08-23T08:34:41.964Z,40.90
2022-08-23T08:37:09.224Z,40.09
2022-08-23T08:39:36.383Z,39.80
2022-08-23T08:42:18.154Z,39.87
2022-08-23T08:44:55.133Z,40.54
2022-08-23T08:47:47.302Z,40.91
2022-08-23T08:50:29.943Z,40.77
2022-08-23T08:53:01.923Z,40.83
2022-08-23T08:55:34.192Z,39.74
2022-08-23T08:58:02.416Z,39.25
2022-08-23T09:00:33.759Z,38.24
2022-08-23T09:03:14.271Z,38.49
2022-08-23T09:05:52.678Z,38.06
2022-08-23T09:08:35.250Z,38.41
2022-08-23T09:11:22.443Z,38.53
2022-08-23T09:14:11.155Z,38.75
2022-08-23T09:16:51.008Z,38.30
2022-08-23T09:19:19.318Z,38.10
2022-08-23T09:21:58.199Z,38.40
2022-08-23T09:24:26.427Z,38.23
2022-08-23T09:26:54.581Z,38.33
2022-08-23T09:29:32.260Z,38.34
2022-08-23T09:32:02.599Z,38.32
2022-08-23T09:34:29.539Z,38.17
2022-08-23T09:37:20.092Z,38.04
2022-08-23T09:39:51.559Z,38.48
2022-08-23T09:42:37.507Z,36.58
2022-08-23T09:45:07.116Z,36.91
2022-08-23T09:47:44.357Z,36.60
2022-08-23T09:50:27.454Z,35.24
2022-08-23T09:53:04.568Z,35.62
2022-08-23T09:55:53.229Z,34.36
2022-08-23T09:58:36.198Z,33.78
2022-08-23T10:01:20.886Z,32.50
2022-08-23T10:04:24.526Z,31.47
2022-08-23T10:06:51.889Z,32.00
2022-08-23T10:09:28.137Z,30.88
2022-08-23T10:11:57.405Z,31.41
2022-08-23T10:14:29.026Z,31.41
2022-08-23T10:17:10.314Z,30.88
2022-08-23T10:19:55.509Z,31.23
2022-08-23T10:22:26.254Z,31.71
2022-08-23T10:25:12.505Z,31.99
2022-08-23T10:28:12.898Z,32.29
2022-08-23T10:30:45.557Z,32.79
2022-08-23T10:33:41.704Z,32.61
2022-08-23T10:36:19.372Z,33.05
2022-08-23T10:39:06.248Z,33.24
2022-08-23T10:41:49.613Z,33.27
2022-08-23T10:44:33.610Z,33.13
2022-08-23T10:47:05.563Z,33.46
2022-08-23T10:49:36.245Z,33.93
2022-08-23T10:52:06.741Z,33.97
2022-08-23T10:55:00.444Z,33.97
2022-08-23T10:57:35.551Z,34.02
2022-08-23T11:00:07.159Z,31.76
2022-08-23T11:02:34.555Z,31.13
2022-08-23T11:05:27.213Z,30.00
2022-08-23T11:08:05.622Z,31.06
2022-08-23T11:10:35.943Z,30.47
2022-08-23T11:13:15.770Z,29.16
2022-08-23T11:15:57.279Z,29.53
2022-08-23T11:18:33.846Z,29.43
2022-08-23T11:21:40.674Z,27.60
2022-08-23T11:24:11.701Z,27.87
2022-08-23T11:26:40.069Z,26.55
2022-08-23T11:29:06.985Z,25.84
2022-08-23T11:31:50.460Z,25.71
2022-08-23T11:34:29.361Z,26.42
2022-08-23T11:37:18.934Z,26.44
2022-08-23T11:39:58.508Z,26.99
2022-08-23T11:42:38.651Z,26.53
2022-08-23T11:45:46.490Z,26.81
2022-08-23T11:48:29.925Z,27.23
2022-08-23T11:51:17.404Z,26.77
2022-08-23T11:53:47.315Z,27.32
2022-08-23T11:56:13.908Z,27.64
2022-08-23T11:59:03.603Z,27.88
2022-08-23T12:01:38.875Z,28.68
2022-08-23T12:04:11.867Z,28.41
2022-08-23T12:06:50.618Z,28.25
2022-08-23T12:09:24.327Z,28.17
2022-08-23T12:11:56.784Z,27.34
2022-08-23T12:14:32.861Z,27.45
2022-08-23T12:17:04.326Z,27.80
2022-08-23T12:19:41.664Z,27.32
2022-08-23T12:22:18.543Z,27.34
2022-08-23T12:24:56.880Z,27.04
2022-08-23T12:27:28.562Z,26.97
2022-08-23T12:30:11.147Z,26.78
2022-08-23T12:32:51.401Z,26.76
2022-08-23T12:35:30.434Z,26.63
2022-08-23T12:38:03.156Z,26.59
2022-08-23T12:40:43.260Z,26.10
2022-08-23T12:43:22.258Z,26.19
2022-08-23T12:45:58.717Z,26.25
2022-08-23T12:48:28.782Z,26.27
2022-08-23T12:50:59.653Z,26.02
2022-08-23T12:53:32.654Z,26.26
2022-08-23T12:56:04.066Z,26.00
2022-08-23T12:58:34.205Z,25.96
2022-08-23T13:01:04.408Z,25.49
2022-08-23T13:03:44.428Z,25.04
2022-08-23T13:06:18.848Z,25.20
2022-08-23T13:09:02.631Z,24.82
2022-08-23T13:11:32.990Z,25.52
2022-08-23T13:14:01.243Z,25.74
2022-08-23T13:16:43.948Z,24.99
2022-08-23T13:19:18.480Z,25.36
2022-08-23T13:21:45.553Z,25.03
2022-08-23T13:24:38.386Z,25.22
2022-08-23T13:27:19.060Z,25.90
2022-08-23T13:29:53.191Z,25.47
2022-08-23T13:32:40.242Z,25.50
2022-08-23T13:35:42.176Z,25.80
2022-08-23T13:38:21.201Z,25.68
2022-08-23T13:41:05.030Z,24.99
2022-08-23T13:43:44.081Z,25.21
2022-08-23T13:46:22.877Z,25.43
2022-08-23T13:48:57.329Z,25.63
2022-08-23T13:51:28.857Z,25.65
2022-08-23T13:53:56.591Z,25.88
2022-08-23T13:56:23.923Z,26.36
2022-08-23T13:59:03.672Z,25.72
2022-08-23T14:01:31.463Z,25.63
2022-08-23T14:03:58.819Z,25.95
2022-08-23T14:06:25.699Z,25.46
2022-08-23T14:08:52.485Z,25.40
2022-08-23T14:11:19.961Z,25.55
2022-08-23T14:13:48.900Z,25.59
2022-08-23T14:16:33.587Z,25.64
2022-08-23T14:20:31.499Z,25.60
2022-08-23T14:21:51.435Z,25.14
2022-08-23T14:24:21.066Z,25.80
2022-08-23T14:26:51.534Z,25.81
2022-08-23T14:29:22.591Z,25.98
2022-08-23T14:31:51.857Z,26.36
2022-08-23T14:34:19.376Z,25.74
2022-08-23T14:39:33.679Z,25.93
2022-08-23T14:42:00.377Z,25.80
2022-08-23T14:44:31.648Z,25.97
2022-08-23T14:47:00.603Z,26.32
2022-08-23T14:49:27.308Z,26.64
2022-08-23T14:51:54.310Z,26.79
2022-08-23T14:54:24.445Z,26.76
2022-08-23T14:56:51.827Z,26.95
2022-08-23T14:59:18.559Z,26.81
2022-08-23T15:01:48.792Z,27.11
2022-08-23T15:04:19.658Z,27.19
2022-08-23T15:07:13.978Z,27.39
2022-08-23T15:09:34.515Z,27.50
2022-08-23T15:14:48.517Z,27.95
2022-08-23T15:17:15.619Z,28.33
2022-08-23T15:19:42.466Z,28.79
2022-08-23T15:22:18.346Z,28.43
2022-08-23T15:24:49.116Z,28.44
2022-08-23T15:27:15.893Z,28.45
2022-08-23T15:29:42.639Z,28.69
2022-08-23T15:32:10.201Z,29.25
2022-08-23T15:34:40.222Z,29.30
2022-08-23T15:37:14.258Z,29.59
2022-08-23T15:39:42.376Z,29.68
2022-08-23T15:42:09.320Z,30.17
2022-08-23T15:44:36.302Z,30.62
2022-08-23T15:47:05.584Z,30.74
2022-08-23T15:49:36.285Z,30.95
2022-08-23T15:52:04.943Z,31.31
2022-08-23T15:54:32.066Z,31.61
2022-08-23T15:56:58.898Z,32.17
2022-08-23T15:59:25.974Z,32.37
2022-08-23T16:01:53.038Z,32.75
2022-08-23T16:04:20.022Z,32.95
2022-08-23T16:06:47.161Z,33.22
2022-08-23T16:09:22.558Z,33.54
2022-08-23T16:11:50.843Z,33.57
2022-08-23T16:14:18.250Z,34.08
2022-08-23T16:16:46.658Z,34.53
2022-08-23T16:19:14.875Z,34.66
2022-08-23T16:21:44.463Z,34.99
2022-08-23T16:24:11.658Z,35.18
2022-08-23T16:26:41.945Z,35.06
2022-08-23T16:29:10.855Z,35.39
2022-08-23T16:31:39.787Z,35.59
2022-08-23T16:34:13.583Z,35.66
2022-08-23T16:36:44.334Z,35.78
2022-08-23T16:39:12.193Z,35.88
2022-08-23T16:41:38.905Z,35.51
2022-08-23T16:44:06.816Z,36.07
2022-08-23T16:46:34.254Z,36.21
2022-08-23T16:49:01.127Z,36.57
2022-08-23T16:51:28.197Z,37.26
2022-08-23T16:54:02.257Z,38.47
2022-08-23T16:56:34.189Z,39.00
2022-08-23T16:59:02.321Z,38.98
2022-08-23T17:01:30.290Z,38.96
2022-08-23T17:03:57.040Z,39.22
2022-08-23T17:06:24.033Z,39.38
2022-08-23T17:08:50.825Z,39.43
2022-08-23T17:11:19.328Z,39.52
2022-08-23T17:13:47.049Z,39.92
2022-08-23T17:16:13.799Z,40.09
2022-08-23T17:18:40.790Z,40.19
2022-08-23T17:21:09.116Z,40.39
2022-08-23T17:23:37.687Z,41.09
2022-08-23T17:26:09.712Z,41.80
2022-08-23T17:28:36.424Z,41.59
2022-08-23T17:31:03.423Z,40.85
2022-08-23T17:33:30.811Z,41.46
2022-08-23T17:35:57.552Z,41.50
2022-08-23T17:38:24.298Z,40.73
2022-08-23T17:40:51.654Z,41.30
2022-08-23T17:43:18.419Z,41.15
2022-08-23T17:45:47.531Z,41.17
2022-08-23T17:48:15.838Z,41.19
2022-08-23T17:50:43.695Z,41.48
2022-08-23T17:53:11.320Z,41.42
2022-08-23T17:55:39.602Z,41.27
2022-08-23T17:58:08.739Z,41.06
2022-08-23T18:00:38.890Z,41.13
2022-08-23T18:03:06.812Z,41.09
2022-08-23T18:05:35.267Z,41.22
2022-08-23T18:08:02.195Z,41.34
2022-08-23T18:10:30.114Z,41.44
2022-08-23T18:12:58.544Z,41.37
2022-08-23T18:15:28.875Z,41.35
2022-08-23T18:17:58.075Z,41.42
2022-08-23T18:20:27.121Z,41.48
2022-08-23T18:22:58.255Z,41.63
2022-08-23T18:25:26.112Z,41.67
2022-08-23T18:28:08.550Z,41.80
2022-08-23T18:30:51.552Z,42.09
2022-08-23T18:33:20.241Z,42.15
2022-08-23T18:35:52.391Z,42.67
2022-08-23T18:38:19.494Z,42.89
2022-08-23T18:40:48.375Z,43.09
2022-08-23T18:43:22.150Z,43.24
2022-08-23T18:45:52.392Z,43.22
2022-08-23T18:48:20.629Z,43.21
2022-08-23T18:50:49.743Z,43.21
2022-08-23T18:53:18.867Z,43.08
2022-08-23T18:55:46.097Z,43.01
2022-08-23T18:58:12.992Z,42.73
2022-08-23T19:00:40.189Z,42.79
2022-08-23T19:03:07.957Z,42.79
2022-08-23T19:05:41.801Z,42.78
2022-08-23T19:08:10.872Z,42.79
2022-08-23T19:10:37.952Z,42.84
2022-08-23T19:13:04.884Z,42.86
2022-08-23T19:15:34.101Z,42.85
2022-08-23T19:18:02.003Z,42.94
2022-08-23T19:20:29.380Z,42.96
2022-08-23T19:22:57.291Z,43.21
2022-08-23T19:25:24.298Z,43.39
2022-08-23T19:27:51.325Z,43.67
2022-08-23T19:30:18.376Z,43.97
2022-08-23T19:32:45.196Z,44.14
2022-08-23T19:35:13.719Z,44.43
2022-08-23T19:37:40.655Z,44.60
2022-08-23T19:40:08.062Z,44.89
2022-08-23T19:42:37.070Z,45.22
2022-08-23T19:45:05.180Z,45.18
2022-08-23T19:47:32.088Z,45.15
2022-08-23T19:49:59.007Z,45.30
2022-08-23T19:52:26.477Z,45.33
2022-08-23T19:54:53.261Z,45.22
2022-08-23T19:57:20.537Z,45.03
2022-08-23T19:59:47.581Z,45.08
2022-08-23T20:02:14.600Z,45.15
2022-08-23T20:04:41.915Z,44.90
2022-08-23T20:07:09.132Z,44.91
2022-08-23T20:09:35.907Z,44.91
2022-08-23T20:12:03.366Z,44.97
2022-08-23T20:14:31.330Z,45.40
2022-08-23T20:16:57.975Z,45.17
2022-08-23T20:19:25.449Z,45.15
2022-08-23T20:22:15.665Z,45.52
2022-08-23T20:24:51.712Z,46.01
2022-08-23T20:27:24.551Z,47.24
2022-08-23T20:30:00.345Z,47.77
2022-08-23T20:32:27.901Z,47.35
2022-08-23T20:34:54.573Z,47.92
2022-08-23T20:37:21.808Z,48.42
2022-08-23T20:39:48.639Z,49.17
2022-08-23T20:42:15.639Z,49.41
2022-08-23T20:44:42.628Z,50.41
2022-08-23T20:47:09.341Z,50.13
2022-08-23T20:49:36.196Z,50.38
2022-08-23T20:52:03.403Z,50.61
2022-08-23T20:54:30.187Z,51.16
2022-08-23T20:56:56.866Z,51.84
2022-08-23T20:59:23.921Z,51.66
2022-08-23T21:01:50.846Z,52.13
2022-08-23T21:04:19.071Z,52.72
2022-08-23T21:06:50.301Z,52.63
2022-08-23T21:09:21.500Z,53.12
2022-08-23T21:11:51.463Z,53.81
2022-08-23T21:14:20.590Z,54.27
2022-08-23T21:16:48.455Z,54.36
2022-08-23T21:19:16.360Z,54.92
2022-08-23T21:21:43.735Z,54.78
2022-08-23T21:24:11.512Z,54.87
2022-08-23T21:26:39.350Z,55.25
2022-08-23T21:29:08.045Z,55.75
2022-08-23T21:31:35.355Z,55.34
2022-08-23T21:34:02.557Z,55.26
2022-08-23T21:36:29.856Z,54.70
2022-08-23T21:38:56.781Z,55.20
2022-08-23T21:41:36.105Z,55.44
2022-08-23T21:44:06.414Z,55.90
2022-08-23T21:46:34.012Z,53.77
2022-08-23T21:49:00.890Z,54.00
2022-08-23T21:51:28.041Z,55.46
2022-08-23T21:53:55.187Z,53.05
2022-08-23T21:56:21.955Z,54.18
2022-08-23T21:58:50.454Z,55.57
2022-08-23T22:01:18.572Z,53.55
2022-08-23T22:03:45.669Z,54.36
2022-08-23T22:06:15.221Z,56.18
2022-08-23T22:08:43.318Z,55.55
2022-08-23T22:11:11.586Z,55.54
2022-08-23T22:13:39.055Z,56.18
2022-08-23T22:16:06.907Z,56.02
2022-08-23T22:18:34.786Z,56.77
2022-08-23T22:21:02.168Z,54.82
2022-08-23T22:23:30.209Z,55.78
2022-08-23T22:26:02.251Z,55.09
2022-08-23T22:28:32.596Z,56.44
2022-08-23T22:31:02.044Z,55.77
2022-08-23T22:33:29.111Z,55.95
2022-08-23T22:36:02.898Z,57.15
2022-08-23T22:38:30.662Z,57.07
2022-08-23T22:40:58.245Z,57.01
2022-08-23T22:43:25.163Z,57.89
2022-08-23T22:46:00.925Z,58.46
2022-08-23T22:48:30.774Z,57.25
2022-08-23T22:51:08.589Z,58.39
2022-08-23T22:53:37.074Z,57.72
2022-08-23T22:56:05.095Z,56.69
2022-08-23T22:58:32.338Z,57.56
2022-08-23T23:00:59.280Z,58.25
2022-08-23T23:03:29.597Z,57.28
2022-08-23T23:05:56.292Z,57.83
2022-08-23T23:08:29.447Z,56.52
2022-08-23T23:11:02.523Z,54.35
2022-08-23T23:13:31.584Z,52.99
2022-08-23T23:16:02.731Z,51.68
2022-08-23T23:18:29.624Z,52.14
2022-08-23T23:21:01.604Z,51.89
2022-08-23T23:23:30.229Z,51.55
2022-08-23T23:25:58.480Z,51.64
2022-08-23T23:28:25.444Z,51.90
2022-08-23T23:30:54.628Z,52.07
2022-08-23T23:33:23.281Z,52.53
2022-08-23T23:35:51.751Z,52.77
2022-08-23T23:38:18.895Z,53.16
2022-08-23T23:40:45.646Z,53.26
2022-08-23T23:43:13.127Z,53.04
2022-08-23T23:45:41.486Z,53.48
2022-08-23T23:48:09.006Z,53.50
2022-08-23T23:50:39.650Z,53.77
2022-08-23T23:53:12.527Z,52.92
2022-08-23T23:55:39.426Z,53.41
2022-08-23T23:58:06.083Z,53.66
